Time;durP1;ratioP1;P1;durP2;ratioP2;P2;SDS_P1;SDS_P2;PMS_P1;PMS_P2;Temp;Humidity;BMP_temperature;BMP_pressure;BME280_temperature;BME280_humidity;BME280_pressure;Samples;Min_cycle;Max_cycle;Signal;HPM_P1;HPM_P2
2022/09/15 00:00:53;;;;;;;9.88;7.28;;;15.60;99.90;;;;;;5067823;28;20024;-36
2022/09/15 00:03:20;;;;;;;8.57;6.90;;;15.60;99.90;;;;;;5067684;28;20119;-35
2022/09/15 00:05:45;;;;;;;8.02;6.95;;;15.70;99.90;;;;;;5067814;28;20116;-35
2022/09/15 00:08:12;;;;;;;11.27;7.13;;;15.70;99.90;;;;;;5067459;28;20100;-35
2022/09/15 00:10:38;;;;;;;6.93;6.22;;;15.70;99.90;;;;;;5068010;28;20028;-35
2022/09/15 00:13:04;;;;;;;7.50;6.40;;;15.80;99.90;;;;;;5067132;28;20381;-36
2022/09/15 00:15:30;;;;;;;9.13;6.00;;;15.80;99.90;;;;;;5067131;28;20028;-36
2022/09/15 00:17:55;;;;;;;7.22;5.55;;;15.80;99.90;;;;;;5067560;28;20028;-36
2022/09/15 00:20:21;;;;;;;6.40;5.80;;;15.80;99.90;;;;;;5066852;28;20033;-42
2022/09/15 00:22:48;;;;;;;8.07;6.70;;;15.80;99.90;;;;;;5067809;28;20025;-36
2022/09/15 00:25:14;;;;;;;7.07;6.15;;;15.80;99.90;;;;;;5067606;28;20035;-35
2022/09/15 00:27:39;;;;;;;8.32;5.82;;;15.80;99.90;;;;;;5066994;28;20013;-35
2022/09/15 00:30:06;;;;;;;7.32;6.28;;;15.80;99.90;;;;;;5068320;28;20067;-36
2022/09/15 00:32:32;;;;;;;9.13;6.57;;;15.80;99.90;;;;;;5067134;28;20375;-35
2022/09/15 00:34:57;;;;;;;9.13;6.70;;;15.80;99.90;;;;;;5066591;28;20036;-35
2022/09/15 00:37:23;;;;;;;7.30;5.97;;;15.90;99.90;;;;;;5066591;28;20025;-35
2022/09/15 00:39:49;;;;;;;9.18;7.30;;;15.90;99.90;;;;;;5067635;28;20036;-35
2022/09/15 00:42:17;;;;;;;8.98;6.97;;;15.90;99.90;;;;;;5065960;28;20020;-36
2022/09/15 00:44:53;;;;;;;9.20;6.55;;;15.90;99.90;;;;;;5066594;28;20487;-36
2022/09/15 00:47:26;;;;;;;8.75;7.18;;;15.90;99.90;;;;;;5065483;28;20510;-35
2022/09/15 00:50:00;;;;;;;7.72;6.53;;;16.00;99.90;;;;;;5067010;28;20032;-35
2022/09/15 00:52:31;;;;;;;8.43;6.32;;;16.00;99.90;;;;;;5066608;28;20017;-36
2022/09/15 00:55:10;;;;;;;7.70;5.60;;;16.00;99.90;;;;;;5055673;28;20032;-36
2022/09/15 00:57:52;;;;;;;7.40;6.18;;;16.00;99.90;;;;;;5066909;28;20391;-36
2022/09/15 01:00:20;;;;;;;7.57;5.93;;;16.00;99.90;;;;;;5058020;28;20103;-36
2022/09/15 01:02:48;;;;;;;7.13;5.82;;;16.00;99.90;;;;;;5066457;28;20016;-36
2022/09/15 01:05:17;;;;;;;6.82;5.32;;;16.00;99.90;;;;;;5055473;28;20081;-36
2022/09/15 01:07:52;;;;;;;7.95;6.43;;;16.10;99.90;;;;;;5067043;28;20051;-35
2022/09/15 01:10:34;;;;;;;6.03;4.88;;;16.00;99.90;;;;;;5065356;28;20633;-35
2022/09/15 01:13:10;;;;;;;9.57;5.70;;;16.00;99.90;;;;;;5067026;28;20043;-35
2022/09/15 01:15:54;;;;;;;8.50;6.22;;;16.00;99.90;;;;;;5056281;28;20610;-35
2022/09/15 01:19:10;;;;;;;6.88;5.90;;;16.00;99.90;;;;;;5066100;28;20034;-36
2022/09/15 01:22:13;;;;;;;10.10;6.15;;;15.90;99.90;;;;;;5023909;28;20563;-45
2022/09/15 01:24:44;;;;;;;6.35;4.90;;;15.80;99.90;;;;;;5023314;28;20409;-36
2022/09/15 01:27:31;;;;;;;7.93;5.57;;;15.80;99.90;;;;;;5055585;28;20118;-36
2022/09/15 01:30:04;;;;;;;6.78;5.13;;;15.80;99.90;;;;;;5065720;28;20073;-34
2022/09/15 01:33:04;;;;;;;11.40;5.97;;;15.70;99.90;;;;;;5046554;28;20028;-36
2022/09/15 01:36:00;;;;;;;6.82;5.50;;;15.70;99.90;;;;;;5064845;28;20032;-36
2022/09/15 01:38:59;;;;;;;7.38;5.20;;;15.70;99.90;;;;;;5065191;28;20025;-35
2022/09/15 01:41:41;;;;;;;6.00;4.85;;;15.70;99.90;;;;;;5055117;28;20138;-36
2022/09/15 01:44:14;;;;;;;5.88;5.13;;;15.70;99.90;;;;;;5065992;28;20051;-36
2022/09/15 01:46:49;;;;;;;6.38;4.97;;;15.70;99.90;;;;;;5055735;28;20162;-36
2022/09/15 01:49:19;;;;;;;7.75;5.05;;;15.70;99.90;;;;;;5065646;28;20070;-35
2022/09/15 01:51:47;;;;;;;9.10;5.38;;;15.70;99.90;;;;;;5065626;28;20024;-35
2022/09/15 01:54:14;;;;;;;5.88;5.07;;;15.70;99.90;;;;;;5065171;28;20093;-38
2022/09/15 01:56:40;;;;;;;5.78;5.18;;;15.80;99.90;;;;;;5065325;28;20376;-36
2022/09/15 01:59:07;;;;;;;7.18;5.95;;;15.80;99.90;;;;;;5064777;28;20032;-37
2022/09/15 02:01:50;;;;;;;5.80;5.20;;;15.80;99.90;;;;;;5066169;28;20017;-37
2022/09/15 02:04:26;;;;;;;8.73;5.80;;;15.80;99.90;;;;;;5065239;28;20040;-35
2022/09/15 02:07:22;;;;;;;6.57;5.90;;;15.80;99.90;;;;;;5061903;28;20322;-36
2022/09/15 02:09:53;;;;;;;7.40;5.35;;;15.70;99.90;;;;;;5058696;28;20365;-36
2022/09/15 02:12:22;;;;;;;8.90;6.47;;;15.70;99.90;;;;;;5064382;28;20099;-35
2022/09/15 02:15:04;;;;;;;6.57;5.88;;;15.70;99.90;;;;;;5065271;28;20063;-37
2022/09/15 02:17:34;;;;;;;7.40;6.18;;;15.70;99.90;;;;;;5065322;28;20024;-35
2022/09/15 02:20:19;;;;;;;7.20;6.07;;;15.70;99.90;;;;;;5065379;28;20021;-36
2022/09/15 02:22:48;;;;;;;6.18;5.40;;;15.70;99.90;;;;;;5065906;28;20102;-35
2022/09/15 02:25:30;;;;;;;6.72;5.68;;;15.60;99.90;;;;;;5064461;28;20051;-36
2022/09/15 02:28:01;;;;;;;6.55;5.90;;;15.60;99.90;;;;;;5064978;28;20024;-35
2022/09/15 02:30:28;;;;;;;5.95;5.40;;;15.50;99.90;;;;;;5063785;28;20012;-35
2022/09/15 02:32:58;;;;;;;8.45;6.32;;;15.50;99.90;;;;;;5063229;28;20082;-36
2022/09/15 02:35:25;;;;;;;12.95;7.65;;;15.40;99.90;;;;;;5063841;28;20112;-36
2022/09/15 02:37:52;;;;;;;8.25;6.75;;;15.40;99.90;;;;;;5065282;28;20391;-36
2022/09/15 02:40:18;;;;;;;8.32;6.75;;;15.30;99.90;;;;;;5063985;28;20020;-35
2022/09/15 02:42:55;;;;;;;10.05;6.75;;;15.30;99.90;;;;;;5064756;28;20353;-36
2022/09/15 02:45:25;;;;;;;6.88;5.35;;;15.20;99.90;;;;;;5064458;28;20021;-35
2022/09/15 02:47:51;;;;;;;6.75;5.55;;;15.20;99.90;;;;;;5063988;28;20085;-36
2022/09/15 02:50:17;;;;;;;6.82;5.18;;;15.20;99.90;;;;;;5064354;28;20033;-36
2022/09/15 02:52:43;;;;;;;6.63;5.72;;;15.20;99.90;;;;;;5064234;28;20107;-37
2022/09/15 02:55:09;;;;;;;6.22;5.50;;;15.20;99.90;;;;;;5063945;28;20035;-36
2022/09/15 02:57:35;;;;;;;6.70;6.00;;;15.20;99.90;;;;;;5064643;28;20040;-36
2022/09/15 03:00:13;;;;;;;7.60;6.45;;;15.10;99.90;;;;;;5064480;28;20452;-37
2022/09/15 03:02:57;;;;;;;6.63;5.47;;;15.20;99.90;;;;;;5064158;28;20024;-37
2022/09/15 03:05:25;;;;;;;7.07;5.82;;;15.10;99.90;;;;;;5064480;28;20032;-36
2022/09/15 03:07:51;;;;;;;6.70;6.00;;;15.10;99.90;;;;;;5064664;28;20020;-36
2022/09/15 03:10:17;;;;;;;7.85;5.65;;;15.10;99.90;;;;;;5063795;28;20031;-36
2022/09/15 03:12:45;;;;;;;9.20;5.85;;;15.10;99.90;;;;;;5064631;28;20424;-36
2022/09/15 03:15:13;;;;;;;6.50;5.22;;;15.10;99.90;;;;;;5064282;28;20043;-37
2022/09/15 03:17:40;;;;;;;6.13;5.15;;;15.10;99.90;;;;;;5064667;28;20031;-36
2022/09/15 03:20:08;;;;;;;5.22;3.97;;;15.10;99.90;;;;;;5064761;28;20036;-35
2022/09/15 03:22:34;;;;;;;6.93;4.80;;;15.10;99.90;;;;;;5064186;28;20107;-35
2022/09/15 03:25:00;;;;;;;6.28;4.38;;;15.10;99.90;;;;;;5064582;28;20400;-36
2022/09/15 03:27:26;;;;;;;6.07;4.80;;;15.00;99.90;;;;;;5063715;28;20027;-35
2022/09/15 03:29:51;;;;;;;5.03;4.50;;;15.00;99.90;;;;;;5063462;28;20032;-35
2022/09/15 03:32:17;;;;;;;5.78;4.20;;;15.00;99.90;;;;;;5064311;28;20032;-36
2022/09/15 03:34:43;;;;;;;7.45;4.18;;;15.00;99.90;;;;;;5064274;28;20480;-36
2022/09/15 03:37:08;;;;;;;4.93;4.22;;;15.10;99.90;;;;;;5063522;28;20025;-36
2022/09/15 03:39:34;;;;;;;5.10;3.80;;;15.10;99.90;;;;;;5064277;28;20037;-36
2022/09/15 03:41:59;;;;;;;3.97;3.15;;;15.20;99.90;;;;;;5064958;28;20175;-36
2022/09/15 03:44:25;;;;;;;5.70;3.70;;;15.20;99.90;;;;;;5062877;28;20547;-36
2022/09/15 03:46:51;;;;;;;4.88;3.45;;;15.20;99.90;;;;;;5064708;28;20013;-35
2022/09/15 03:49:17;;;;;;;4.93;3.75;;;15.30;99.90;;;;;;5063613;28;20024;-35
2022/09/15 03:51:43;;;;;;;7.25;3.95;;;15.30;99.90;;;;;;5063890;28;20020;-36
2022/09/15 03:54:09;;;;;;;5.88;4.45;;;15.30;99.90;;;;;;5063824;28;20488;-35
2022/09/15 03:56:35;;;;;;;5.05;3.72;;;15.30;99.90;;;;;;5064626;28;20442;-37
2022/09/15 03:59:02;;;;;;;5.75;3.88;;;15.30;99.90;;;;;;5063129;28;20338;-35
2022/09/15 04:01:29;;;;;;;3.33;2.90;;;15.30;99.90;;;;;;5063894;28;20410;-37
2022/09/15 04:03:56;;;;;;;5.03;3.58;;;15.30;99.90;;;;;;5064365;28;20051;-35
2022/09/15 04:06:23;;;;;;;4.40;3.83;;;15.30;99.90;;;;;;5062828;28;20024;-37
2022/09/15 04:08:50;;;;;;;3.95;3.38;;;15.30;99.90;;;;;;5064218;28;20468;-37
2022/09/15 04:11:17;;;;;;;5.65;3.72;;;15.20;99.90;;;;;;5063666;28;20518;-36
2022/09/15 04:13:43;;;;;;;4.28;3.10;;;15.20;99.90;;;;;;5062940;28;20051;-36
2022/09/15 04:16:12;;;;;;;4.28;3.63;;;15.20;99.90;;;;;;5063490;28;20472;-36
2022/09/15 04:18:37;;;;;;;3.42;2.90;;;15.20;99.90;;;;;;5064085;28;20036;-37
2022/09/15 04:21:06;;;;;;;5.20;3.35;;;15.20;99.90;;;;;;5065929;28;20017;-36
2022/09/15 04:23:32;;;;;;;4.13;3.17;;;15.20;99.90;;;;;;5067841;28;20111;-37
2022/09/15 04:26:00;;;;;;;6.45;3.22;;;15.20;99.90;;;;;;5066340;28;20041;-37
2022/09/15 04:28:27;;;;;;;4.70;2.78;;;15.20;99.90;;;;;;5067535;28;20064;-35
2022/09/15 04:31:06;;;;;;;5.15;2.90;;;15.30;99.90;;;;;;5067666;28;20025;-36
2022/09/15 04:33:32;;;;;;;3.15;2.50;;;15.30;99.90;;;;;;5046749;28;20547;-36
2022/09/15 04:36:04;;;;;;;3.35;2.65;;;15.40;99.90;;;;;;5062073;28;20027;-36
2022/09/15 04:38:30;;;;;;;3.70;2.20;;;15.40;99.90;;;;;;5066441;28;20127;-36
2022/09/15 04:40:56;;;;;;;3.35;2.38;;;15.40;99.90;;;;;;5066571;28;20024;-36
2022/09/15 04:43:21;;;;;;;2.85;2.40;;;15.40;99.90;;;;;;5066798;28;20033;-36
2022/09/15 04:45:48;;;;;;;4.15;2.35;;;15.40;99.90;;;;;;5067650;28;20325;-36
2022/09/15 04:48:13;;;;;;;3.03;2.17;;;15.40;99.90;;;;;;5065796;28;20032;-37
2022/09/15 04:50:39;;;;;;;2.40;2.08;;;15.40;99.90;;;;;;5066887;28;20035;-36
2022/09/15 04:53:05;;;;;;;5.65;2.03;;;15.40;99.90;;;;;;5066979;28;20058;-36
2022/09/15 04:55:32;;;;;;;2.67;1.70;;;15.40;99.90;;;;;;5066016;28;20028;-36
2022/09/15 04:57:57;;;;;;;3.50;2.30;;;15.40;99.90;;;;;;5055792;28;20487;-37
2022/09/15 05:00:25;;;;;;;4.60;1.70;;;15.50;99.90;;;;;;5067200;28;20036;-36
2022/09/15 05:02:52;;;;;;;3.33;2.22;;;15.50;99.90;;;;;;5066428;28;20387;-36
2022/09/15 05:05:18;;;;;;;2.30;1.88;;;15.50;99.90;;;;;;5066485;28;20067;-35
2022/09/15 05:07:44;;;;;;;3.40;2.25;;;15.50;99.90;;;;;;5067770;28;20039;-36
2022/09/15 05:10:09;;;;;;;4.10;1.90;;;15.50;99.90;;;;;;5065817;28;20037;-36
2022/09/15 05:12:35;;;;;;;2.83;1.83;;;15.50;99.90;;;;;;5067019;28;20052;-36
2022/09/15 05:15:00;;;;;;;3.95;2.22;;;15.50;99.90;;;;;;5066284;28;20037;-37
2022/09/15 05:17:30;;;;;;;3.28;1.83;;;15.50;99.90;;;;;;5066268;28;20021;-36
2022/09/15 05:19:55;;;;;;;2.47;1.48;;;15.60;99.90;;;;;;5067057;28;20038;-36
2022/09/15 05:22:20;;;;;;;2.55;1.80;;;15.60;99.90;;;;;;5065475;28;20435;-36
2022/09/15 05:24:46;;;;;;;2.67;2.00;;;15.60;99.90;;;;;;5067220;28;20496;-35
2022/09/15 05:27:12;;;;;;;3.38;1.90;;;15.50;99.90;;;;;;5065550;28;20024;-36
2022/09/15 05:29:37;;;;;;;2.83;1.73;;;15.50;99.90;;;;;;5066079;28;20410;-36
2022/09/15 05:32:03;;;;;;;3.30;1.67;;;15.50;99.90;;;;;;5065998;28;20430;-36
2022/09/15 05:34:28;;;;;;;2.15;1.60;;;15.50;99.90;;;;;;5066162;28;20066;-36
2022/09/15 05:36:54;;;;;;;3.35;1.50;;;15.50;99.90;;;;;;5065543;28;20016;-36
2022/09/15 05:39:19;;;;;;;5.63;1.95;;;15.40;99.90;;;;;;5064451;28;20596;-37
2022/09/15 05:41:45;;;;;;;2.38;1.80;;;15.40;99.90;;;;;;5065363;28;20137;-37
2022/09/15 05:44:10;;;;;;;3.40;1.80;;;15.40;99.90;;;;;;5065436;28;20078;-37
2022/09/15 05:46:36;;;;;;;3.58;1.67;;;15.50;99.90;;;;;;5065075;28;20020;-36
2022/09/15 05:49:02;;;;;;;2.42;1.65;;;15.50;99.90;;;;;;5063633;28;20459;-36
2022/09/15 05:51:28;;;;;;;3.95;1.90;;;15.40;99.90;;;;;;5063839;28;20021;-36
2022/09/15 05:53:54;;;;;;;2.17;1.77;;;15.50;99.90;;;;;;5064517;28;20516;-36
2022/09/15 05:56:20;;;;;;;3.65;1.80;;;15.50;99.90;;;;;;5064803;28;20070;-37
2022/09/15 05:58:47;;;;;;;3.22;1.52;;;15.50;99.90;;;;;;5064552;28;20109;-37
2022/09/15 06:01:17;;;;;;;3.15;1.63;;;15.50;99.90;;;;;;5065044;28;20430;-36
2022/09/15 06:03:43;;;;;;;2.42;1.50;;;15.50;99.90;;;;;;5064312;28;20020;-38
2022/09/15 06:06:08;;;;;;;3.10;1.60;;;15.50;99.90;;;;;;5063810;28;20416;-35
2022/09/15 06:08:37;;;;;;;2.95;1.40;;;15.60;99.90;;;;;;5064852;28;20400;-37
2022/09/15 06:11:06;;;;;;;2.70;1.70;;;15.60;99.90;;;;;;5065190;28;20049;-39
2022/09/15 06:13:32;;;;;;;3.35;1.63;;;15.70;99.90;;;;;;5063148;28;20551;-37
2022/09/15 06:16:06;;;;;;;3.40;1.50;;;15.70;99.90;;;;;;5064626;28;20023;-40
2022/09/15 06:18:33;;;;;;;3.83;1.58;;;15.70;99.90;;;;;;5063320;28;20539;-35
2022/09/15 06:21:09;;;;;;;3.80;1.80;;;15.70;99.90;;;;;;5065239;28;20025;-38
2022/09/15 06:23:35;;;;;;;5.68;1.65;;;15.70;99.90;;;;;;5064055;28;20017;-37
2022/09/15 06:26:05;;;;;;;1.83;1.38;;;15.80;99.90;;;;;;5064392;28;20600;-36
2022/09/15 06:28:32;;;;;;;4.10;1.70;;;15.80;99.90;;;;;;5064885;28;20108;-36
2022/09/15 06:30:58;;;;;;;2.15;1.50;;;15.90;99.90;;;;;;5065319;28;20038;-40
2022/09/15 06:33:23;;;;;;;2.65;1.30;;;15.90;99.90;;;;;;5063731;28;20550;-41
2022/09/15 06:35:49;;;;;;;3.15;1.40;;;16.00;99.90;;;;;;5065790;28;20032;-38
2022/09/15 06:38:14;;;;;;;2.55;1.40;;;16.00;99.90;;;;;;5064241;28;20453;-38
2022/09/15 06:40:39;;;;;;;1.75;1.13;;;16.00;99.90;;;;;;5064144;28;20024;-39
2022/09/15 06:43:05;;;;;;;2.75;1.30;;;16.10;99.90;;;;;;5065842;28;20032;-36
2022/09/15 06:45:31;;;;;;;1.27;1.00;;;16.10;99.90;;;;;;5064512;28;20044;-36
2022/09/15 06:47:56;;;;;;;2.78;1.42;;;16.20;99.90;;;;;;5044125;28;20052;-38
2022/09/15 06:50:22;;;;;;;1.55;1.30;;;16.20;99.90;;;;;;5057635;28;20027;-36
2022/09/15 06:52:47;;;;;;;2.35;1.10;;;16.20;99.90;;;;;;5063730;28;20115;-36
2022/09/15 06:55:13;;;;;;;2.95;1.05;;;16.30;99.90;;;;;;5063367;28;20031;-36
2022/09/15 06:57:38;;;;;;;3.28;1.27;;;16.30;99.90;;;;;;5064311;28;20040;-36
2022/09/15 07:00:05;;;;;;;3.47;1.30;;;16.30;99.90;;;;;;5064733;28;20016;-37
2022/09/15 07:02:31;;;;;;;3.50;1.20;;;16.30;99.90;;;;;;5063730;28;20033;-36
2022/09/15 07:04:56;;;;;;;2.00;1.00;;;16.40;99.90;;;;;;5064566;28;20477;-37
2022/09/15 07:07:22;;;;;;;2.78;1.20;;;16.40;99.90;;;;;;5064194;28;20043;-36
2022/09/15 07:09:48;;;;;;;3.20;1.20;;;16.50;99.90;;;;;;5064023;28;20121;-37
2022/09/15 07:12:13;;;;;;;2.05;1.13;;;16.50;99.90;;;;;;5064525;28;20549;-38
2022/09/15 07:14:39;;;;;;;3.55;1.17;;;16.50;99.90;;;;;;5063562;28;20043;-36
2022/09/15 07:17:04;;;;;;;5.03;1.50;;;16.50;99.90;;;;;;5063933;28;20032;-36
2022/09/15 07:19:30;;;;;;;2.45;1.05;;;16.50;99.90;;;;;;5064307;28;20036;-38
2022/09/15 07:21:55;;;;;;;2.80;1.02;;;16.50;99.90;;;;;;5063813;28;20471;-37
2022/09/15 07:24:24;;;;;;;2.58;0.90;;;16.50;99.90;;;;;;5063671;28;20051;-35
2022/09/15 07:26:50;;;;;;;2.17;0.95;;;16.50;99.90;;;;;;5064480;28;20693;-36
2022/09/15 07:29:16;;;;;;;4.57;1.48;;;16.60;99.90;;;;;;5063034;28;20422;-36
2022/09/15 07:31:41;;;;;;;5.13;1.45;;;16.60;99.90;;;;;;5064806;28;20115;-37
2022/09/15 07:34:07;;;;;;;2.88;1.00;;;16.70;99.90;;;;;;5064016;28;20036;-35
2022/09/15 07:36:33;;;;;;;1.80;1.00;;;16.70;99.90;;;;;;5063648;28;20417;-36
2022/09/15 07:38:58;;;;;;;3.85;1.10;;;16.80;99.90;;;;;;5064198;28;20098;-36
2022/09/15 07:41:27;;;;;;;4.57;1.13;;;16.80;99.90;;;;;;5063497;28;20624;-37
2022/09/15 07:43:55;;;;;;;2.72;1.25;;;16.70;99.90;;;;;;5063747;28;20029;-37
2022/09/15 07:46:22;;;;;;;3.38;0.90;;;16.70;99.90;;;;;;5062771;28;20331;-36
2022/09/15 07:48:50;;;;;;;1.63;0.90;;;16.70;99.90;;;;;;5064538;28;20036;-36
2022/09/15 07:51:16;;;;;;;2.47;1.00;;;16.70;99.90;;;;;;5063124;28;20088;-36
2022/09/15 07:53:43;;;;;;;2.20;0.80;;;16.80;99.90;;;;;;5063739;28;20520;-37
2022/09/15 07:56:09;;;;;;;3.97;1.10;;;16.90;99.90;;;;;;5066620;28;20494;-36
2022/09/15 07:58:34;;;;;;;2.17;1.10;;;17.00;99.90;;;;;;5067045;28;20048;-38
2022/09/15 08:01:05;;;;;;;5.43;1.38;;;17.00;99.90;;;;;;5067682;28;20016;-37
2022/09/15 08:03:30;;;;;;;2.97;1.00;;;16.90;99.90;;;;;;5067999;28;20107;-36
2022/09/15 08:05:57;;;;;;;7.80;1.20;;;17.00;99.90;;;;;;5067063;28;20112;-37
2022/09/15 08:08:23;;;;;;;4.82;1.35;;;17.00;99.90;;;;;;5066745;28;20459;-36
2022/09/15 08:10:48;;;;;;;4.80;1.33;;;17.00;99.90;;;;;;5068064;28;20090;-35
2022/09/15 08:13:14;;;;;;;3.85;1.05;;;16.90;99.90;;;;;;5066355;28;20403;-37
2022/09/15 08:15:40;;;;;;;4.70;1.33;;;16.90;99.90;;;;;;5067645;28;20033;-37
2022/09/15 08:18:05;;;;;;;7.07;1.60;;;16.90;99.90;;;;;;5066836;28;20134;-36
2022/09/15 08:20:31;;;;;;;3.60;1.10;;;16.90;99.90;;;;;;5067954;28;20105;-37
2022/09/15 08:22:57;;;;;;;2.42;1.10;;;16.90;99.90;;;;;;5067904;28;20040;-37
2022/09/15 08:25:23;;;;;;;1.98;0.77;;;16.90;99.90;;;;;;5063742;28;20689;-37
2022/09/15 08:27:48;;;;;;;5.18;1.00;;;17.00;99.90;;;;;;5066580;28;20081;-37
2022/09/15 08:30:14;;;;;;;4.30;1.25;;;17.10;99.90;;;;;;5067127;28;20064;-37
2022/09/15 08:32:39;;;;;;;5.88;1.20;;;17.10;99.90;;;;;;5065945;28;20073;-37
2022/09/15 08:35:07;;;;;;;7.38;1.40;;;17.10;99.90;;;;;;5066605;28;20029;-37
2022/09/15 08:37:33;;;;;;;3.58;1.00;;;17.00;99.90;;;;;;5067564;28;20111;-37
2022/09/15 08:39:58;;;;;;;4.13;1.10;;;17.00;99.90;;;;;;5066004;28;20133;-36
2022/09/15 08:42:25;;;;;;;2.95;0.85;;;17.10;99.90;;;;;;5066578;28;20025;-44
2022/09/15 08:44:59;;;;;;;2.28;0.68;;;17.20;99.90;;;;;;5067520;28;20062;-36
2022/09/15 08:47:39;;;;;;;2.33;0.80;;;17.40;99.90;;;;;;5066075;28;20047;-35
2022/09/15 08:50:47;;;;;;;3.83;0.90;;;17.50;99.90;;;;;;5067758;28;20078;-37
2022/09/15 08:53:19;;;;;;;1.77;0.75;;;17.50;99.90;;;;;;5046051;28;20380;-35
2022/09/15 08:55:45;;;;;;;2.03;0.70;;;17.50;99.90;;;;;;5067627;28;20094;-36
2022/09/15 08:58:16;;;;;;;3.92;0.95;;;17.50;99.90;;;;;;5066947;28;20055;-35
2022/09/15 09:00:44;;;;;;;4.03;1.05;;;17.50;99.90;;;;;;5063387;28;20491;-35
2022/09/15 09:03:31;;;;;;;2.88;0.90;;;17.50;99.90;;;;;;5067198;28;20036;-38
2022/09/15 09:06:17;;;;;;;3.20;0.80;;;17.60;99.90;;;;;;5064200;28;20462;-36
2022/09/15 09:08:54;;;;;;;3.03;0.80;;;17.70;99.90;;;;;;5066229;28;20044;-36
2022/09/15 09:11:55;;;;;;;2.00;0.68;;;17.80;99.90;;;;;;5066383;28;20020;-36
2022/09/15 09:14:40;;;;;;;2.65;0.85;;;17.80;99.90;;;;;;5066031;28;20044;-36
2022/09/15 09:17:36;;;;;;;2.63;0.82;;;17.90;99.90;;;;;;5067296;28;20210;-36
2022/09/15 09:20:19;;;;;;;2.60;0.70;;;17.90;99.90;;;;;;5066462;28;20024;-38
2022/09/15 09:22:48;;;;;;;4.43;1.45;;;17.90;99.90;;;;;;5066173;28;20037;-36
2022/09/15 09:25:17;;;;;;;2.58;0.70;;;17.90;99.90;;;;;;5066177;28;20043;-36
2022/09/15 09:27:44;;;;;;;4.30;0.98;;;17.90;99.90;;;;;;5066923;28;20094;-38
2022/09/15 09:30:14;;;;;;;4.28;1.23;;;18.00;99.90;;;;;;5065438;28;20032;-35
2022/09/15 09:33:03;;;;;;;4.55;1.33;;;18.00;99.90;;;;;;5066301;28;20028;-36
2022/09/15 09:35:45;;;;;;;2.92;0.70;;;17.90;99.90;;;;;;5065136;28;20028;-36
2022/09/15 09:38:15;;;;;;;1.98;0.70;;;18.00;99.90;;;;;;5065817;28;20039;-37
2022/09/15 09:40:41;;;;;;;2.78;0.90;;;18.00;99.90;;;;;;5066157;28;20016;-36
2022/09/15 09:43:08;;;;;;;1.15;0.60;;;18.00;99.90;;;;;;5064979;28;20448;-35
2022/09/15 09:45:33;;;;;;;2.63;0.70;;;18.00;99.90;;;;;;5066635;28;20024;-36
2022/09/15 09:48:14;;;;;;;1.25;0.55;;;18.00;99.90;;;;;;5066148;28;20031;-36
2022/09/15 09:50:42;;;;;;;2.70;0.95;;;18.00;99.90;;;;;;5064958;28;20028;-36
2022/09/15 09:53:29;;;;;;;2.30;0.80;;;18.00;99.90;;;;;;5065422;28;20025;-37
2022/09/15 09:56:15;;;;;;;2.83;0.90;;;18.10;99.90;;;;;;5065950;28;20662;-36
2022/09/15 09:58:41;;;;;;;3.10;0.90;;;18.10;99.90;;;;;;5065261;28;20487;-36
2022/09/15 10:01:12;;;;;;;4.43;1.25;;;18.30;99.90;;;;;;5065273;28;20778;-36
2022/09/15 10:03:40;;;;;;;3.88;0.75;;;18.30;99.90;;;;;;5065274;28;20033;-36
2022/09/15 10:06:21;;;;;;;3.17;1.15;;;18.40;99.90;;;;;;5065508;28;20016;-37
2022/09/15 10:09:04;;;;;;;3.78;0.80;;;18.50;99.90;;;;;;5065681;28;20028;-36
2022/09/15 10:11:50;;;;;;;1.48;0.50;;;18.50;99.10;;;;;;5064797;28;20024;-35
2022/09/15 10:14:26;;;;;;;3.58;0.80;;;18.50;99.50;;;;;;5065098;28;20037;-36
2022/09/15 10:16:57;;;;;;;2.58;0.52;;;18.50;99.70;;;;;;5065983;28;20444;-36
2022/09/15 10:19:23;;;;;;;5.07;0.80;;;18.60;99.80;;;;;;5063933;28;20498;-37
2022/09/15 10:21:49;;;;;;;1.90;0.65;;;18.60;99.70;;;;;;5065849;28;20017;-36
2022/09/15 10:24:32;;;;;;;2.20;0.77;;;18.50;99.60;;;;;;5064603;28;20559;-35
2022/09/15 10:27:35;;;;;;;2.55;0.80;;;18.50;99.60;;;;;;5065323;28;20016;-37
2022/09/15 10:30:13;;;;;;;2.03;0.60;;;18.60;99.80;;;;;;5065495;28;20133;-37
2022/09/15 10:32:40;;;;;;;1.10;0.70;;;18.70;99.80;;;;;;5064459;28;20388;-35
2022/09/15 10:35:12;;;;;;;3.70;1.10;;;18.70;99.80;;;;;;5064824;28;20419;-34
2022/09/15 10:37:38;;;;;;;;;;;18.60;98.70;;;;;;5065791;28;20104;-35
2022/09/15 10:40:26;;;;;;;4.30;1.00;;;18.40;98.50;;;;;;5064940;28;20030;-36
2022/09/15 10:43:00;;;;;;;3.17;0.85;;;18.20;98.50;;;;;;5059180;28;20384;-34
2022/09/15 10:45:33;;;;;;;3.17;0.70;;;18.10;98.10;;;;;;5064502;28;20484;-35
2022/09/15 10:48:18;;;;;;;1.85;0.57;;;17.90;98.80;;;;;;5065389;28;20032;-35
2022/09/15 10:51:08;;;;;;;4.90;1.00;;;17.70;98.80;;;;;;5065307;28;20107;-35
2022/09/15 10:53:58;;;;;;;2.05;0.70;;;17.60;98.60;;;;;;5064169;28;20415;-35
2022/09/15 10:56:31;;;;;;;3.33;0.98;;;17.50;99.00;;;;;;5044340;28;20033;-35
2022/09/15 10:59:14;;;;;;;4.28;0.70;;;17.50;99.30;;;;;;5060498;28;20056;-35
2022/09/15 11:02:19;;;;;;;4.18;0.70;;;17.60;99.20;;;;;;5044270;28;20663;-34
2022/09/15 11:04:58;;;;;;;1.83;0.55;;;17.70;99.40;;;;;;5064514;28;20462;-35
2022/09/15 11:07:45;;;;;;;3.13;0.75;;;17.80;99.40;;;;;;5063496;28;20458;-34
2022/09/15 11:10:32;;;;;;;2.10;0.63;;;17.90;99.10;;;;;;5062424;28;20192;-34
2022/09/15 11:13:26;;;;;;;2.75;0.60;;;18.00;99.20;;;;;;5065312;28;20024;-34
2022/09/15 11:16:28;;;;;;;1.85;0.70;;;18.10;99.00;;;;;;5055365;28;20016;-35
2022/09/15 11:19:20;;;;;;;2.72;0.68;;;18.20;99.10;;;;;;5064681;28;20074;-35
2022/09/15 11:21:58;;;;;;;1.58;0.55;;;18.40;99.10;;;;;;5063823;28;20850;-36
2022/09/15 11:24:41;;;;;;;2.67;0.70;;;18.50;99.00;;;;;;5064341;28;20361;-34
2022/09/15 11:27:13;;;;;;;3.05;0.85;;;18.60;98.50;;;;;;5065365;28;20020;-36
2022/09/15 11:30:00;;;;;;;3.95;0.77;;;18.70;98.40;;;;;;5063237;28;20131;-34
2022/09/15 11:32:44;;;;;;;2.88;1.05;;;18.70;98.20;;;;;;5064417;28;20506;-36
2022/09/15 11:35:36;;;;;;;1.73;0.75;;;18.70;98.20;;;;;;5063349;28;20048;-35
2022/09/15 11:38:12;;;;;;;2.55;0.68;;;18.70;98.40;;;;;;5045314;28;20070;-35
2022/09/15 11:40:47;;;;;;;5.40;1.20;;;18.90;98.10;;;;;;5063430;28;20501;-35
2022/09/15 11:43:54;;;;;;;1.55;0.70;;;18.90;98.00;;;;;;5063432;28;20476;-36
2022/09/15 11:46:30;;;;;;;2.08;0.82;;;19.00;98.20;;;;;;5021166;28;20413;-36
2022/09/15 11:49:02;;;;;;;1.88;0.60;;;19.00;97.20;;;;;;5020923;28;20362;-36
2022/09/15 11:51:30;;;;;;;;;;;19.10;97.60;;;;;;5043376;28;20052;-36
2022/09/15 11:54:12;;;;;;;3.92;0.90;;;19.10;97.20;;;;;;5064458;28;20012;-36
2022/09/15 11:56:44;;;;;;;3.85;0.90;;;19.20;96.70;;;;;;5064336;28;20031;-35
2022/09/15 11:59:35;;;;;;;3.35;0.98;;;19.20;96.40;;;;;;5063871;28;20056;-35
2022/09/15 12:02:37;;;;;;;4.00;0.90;;;19.20;96.40;;;;;;5063177;28;20067;-36
2022/09/15 12:05:18;;;;;;;2.95;0.80;;;19.20;96.60;;;;;;5063169;28;20028;-35
2022/09/15 12:07:46;;;;;;;5.45;1.02;;;19.20;96.40;;;;;;5064693;28;20031;-34
2022/09/15 12:10:16;;;;;;;2.13;0.73;;;19.20;96.60;;;;;;5062825;28;20025;-35
2022/09/15 12:12:43;;;;;;;2.15;0.55;;;19.30;96.60;;;;;;5063919;28;20404;-36
2022/09/15 12:15:26;;;;;;;2.58;0.80;;;19.40;96.60;;;;;;5063747;28;20162;-34
2022/09/15 12:17:51;;;;;;;4.20;1.00;;;19.50;96.50;;;;;;5054085;28;20055;-35
2022/09/15 12:20:19;;;;;;;3.83;1.00;;;19.50;95.90;;;;;;5063252;28;20075;-34
2022/09/15 12:22:55;;;;;;;2.40;0.80;;;19.50;95.70;;;;;;5064279;28;20029;-38
2022/09/15 12:25:39;;;;;;;7.05;1.25;;;19.50;96.00;;;;;;5046163;28;20351;-35
2022/09/15 12:28:20;;;;;;;3.55;0.90;;;19.60;95.30;;;;;;5053950;28;20375;-37
2022/09/15 12:30:46;;;;;;;5.35;1.40;;;19.50;95.30;;;;;;5063841;28;20522;-34
2022/09/15 12:33:52;;;;;;;4.93;1.17;;;19.50;94.60;;;;;;5051672;28;20013;-35
2022/09/15 12:36:42;;;;;;;3.40;1.05;;;19.40;95.10;;;;;;5063302;28;20029;-35
2022/09/15 12:39:28;;;;;;;2.67;1.00;;;19.30;95.20;;;;;;5062691;28;20120;-35
2022/09/15 12:41:55;;;;;;;3.72;1.10;;;19.40;95.20;;;;;;5066341;28;20507;-36
2022/09/15 12:44:39;;;;;;;2.63;1.00;;;19.30;94.80;;;;;;5066727;28;20653;-36
2022/09/15 12:47:25;;;;;;;4.15;1.10;;;19.30;95.00;;;;;;5066341;28;20024;-35
2022/09/15 12:49:53;;;;;;;2.33;1.08;;;19.20;94.40;;;;;;5067911;28;20043;-36
2022/09/15 12:52:21;;;;;;;2.50;0.90;;;19.20;93.90;;;;;;5066148;28;20028;-36
2022/09/15 12:55:01;;;;;;;3.35;0.88;;;19.20;93.10;;;;;;5067915;28;20112;-36
2022/09/15 12:57:33;;;;;;;2.97;0.75;;;19.10;92.40;;;;;;5066748;28;20140;-36
2022/09/15 13:00:26;;;;;;;1.38;0.70;;;19.10;92.40;;;;;;5066865;28;20020;-37
2022/09/15 13:02:52;;;;;;;4.25;1.00;;;19.10;91.90;;;;;;5067064;28;20045;-35
2022/09/15 13:05:44;;;;;;;3.08;1.02;;;19.20;90.20;;;;;;5067157;28;20463;-36
2022/09/15 13:08:36;;;;;;;2.60;0.82;;;19.30;91.10;;;;;;5066327;28;20036;-35
2022/09/15 13:11:08;;;;;;;3.08;0.85;;;19.40;91.00;;;;;;5046691;28;20048;-36
2022/09/15 13:13:42;;;;;;;2.42;0.60;;;19.50;89.20;;;;;;5063336;28;20044;-36